createdAt,value
2017-01-26T00:00:24.502Z,12.79
2017-01-26T00:01:04.991Z,12.7
2017-01-26T00:01:45.487Z,12.79
2017-01-26T00:02:25.983Z,12.79
2017-01-26T00:03:06.467Z,12.79
2017-01-26T00:03:46.960Z,12.6
2017-01-26T00:04:27.447Z,12.6
2017-01-26T00:05:07.954Z,12.51
2017-01-26T00:05:48.436Z,12.51
2017-01-26T00:06:28.934Z,12.51
2017-01-26T00:07:09.425Z,12.71
2017-01-26T00:07:49.925Z,12.71
2017-01-26T00:08:30.399Z,12.71
2017-01-26T00:09:10.884Z,12.71
2017-01-26T00:09:51.378Z,12.7
2017-01-26T00:10:31.858Z,12.7
2017-01-26T00:11:12.333Z,12.79
2017-01-26T00:11:52.837Z,12.7
2017-01-26T00:12:33.326Z,12.99
2017-01-26T00:13:13.826Z,12.89
2017-01-26T00:13:54.318Z,12.79
2017-01-26T00:14:34.808Z,12.99
2017-01-26T00:15:15.290Z,13.09
2017-01-26T00:15:55.784Z,12.6
2017-01-26T00:16:36.403Z,12.99
2017-01-26T00:17:16.912Z,12.89
2017-01-26T00:17:57.401Z,12.79
2017-01-26T00:18:37.905Z,12.89
2017-01-26T00:19:18.393Z,12.7
2017-01-26T00:19:58.872Z,12.79
2017-01-26T00:20:39.370Z,12.89
2017-01-26T00:21:19.870Z,12.8
2017-01-26T00:22:00.368Z,12.51
2017-01-26T00:22:40.866Z,12.79
2017-01-26T00:23:21.380Z,12.79
2017-01-26T00:24:01.870Z,12.89
2017-01-26T00:24:42.363Z,12.79
2017-01-26T00:25:22.844Z,12.89
2017-01-26T00:26:03.340Z,12.79
2017-01-26T00:26:43.847Z,12.89
2017-01-26T00:27:24.349Z,12.7
2017-01-26T00:28:04.832Z,12.7
2017-01-26T00:28:45.323Z,12.7
2017-01-26T00:29:25.821Z,12.89
2017-01-26T00:30:06.311Z,12.79
2017-01-26T00:30:46.830Z,12.7
2017-01-26T00:31:27.309Z,12.79
2017-01-26T00:32:07.802Z,12.79
2017-01-26T00:32:48.288Z,12.79
2017-01-26T00:33:28.773Z,12.79
2017-01-26T00:34:09.268Z,12.7
2017-01-26T00:34:49.754Z,12.79
2017-01-26T00:35:30.253Z,12.79
2017-01-26T00:36:10.752Z,12.51
2017-01-26T00:36:51.252Z,12.51
2017-01-26T00:37:31.741Z,12.51
2017-01-26T00:38:12.227Z,12.79
2017-01-26T00:38:52.722Z,12.7
2017-01-26T00:39:33.202Z,12.8
2017-01-26T00:40:13.713Z,12.6
2017-01-26T00:40:54.199Z,12.89
2017-01-26T00:41:34.696Z,12.89
2017-01-26T00:42:15.175Z,12.79
2017-01-26T00:42:55.666Z,12.51
2017-01-26T00:43:36.155Z,12.51
2017-01-26T00:44:16.645Z,12.7
2017-01-26T00:44:57.144Z,12.6
2017-01-26T00:45:37.639Z,12.7
2017-01-26T00:46:18.136Z,12.51
2017-01-26T00:46:58.621Z,12.6
2017-01-26T00:47:39.119Z,12.79
2017-01-26T00:48:19.605Z,12.7
2017-01-26T00:49:00.092Z,12.89
2017-01-26T00:49:40.590Z,12.79
2017-01-26T00:50:21.085Z,12.79
2017-01-26T00:51:01.588Z,12.51
2017-01-26T00:51:42.086Z,12.51
2017-01-26T00:52:22.581Z,12.6
2017-01-26T00:53:03.074Z,12.51
2017-01-26T00:53:43.565Z,12.71
2017-01-26T00:54:24.048Z,12.6
2017-01-26T00:55:04.532Z,12.51
2017-01-26T00:55:45.027Z,12.6
2017-01-26T00:56:25.523Z,12.51
2017-01-26T00:57:06.010Z,12.6
2017-01-26T00:57:46.506Z,12.6
2017-01-26T00:58:26.979Z,12.7
2017-01-26T00:59:07.493Z,12.6
2017-01-26T00:59:47.976Z,12.51
2017-01-26T01:00:28.474Z,12.6
2017-01-26T01:01:08.954Z,12.79
2017-01-26T01:01:49.447Z,12.7
2017-01-26T01:02:29.951Z,12.79
2017-01-26T01:03:10.446Z,12.79
2017-01-26T01:03:50.947Z,12.79
2017-01-26T01:04:31.464Z,12.79
2017-01-26T01:05:12.069Z,12.7
2017-01-26T01:05:52.591Z,12.51
2017-01-26T01:06:33.077Z,12.61
2017-01-26T01:07:13.568Z,12.6
2017-01-26T01:07:54.071Z,12.41
2017-01-26T01:08:34.580Z,12.51
2017-01-26T01:09:15.076Z,12.71
2017-01-26T01:09:55.566Z,12.51
2017-01-26T01:10:36.062Z,12.6
2017-01-26T01:11:16.550Z,12.51
2017-01-26T01:11:57.031Z,12.51
2017-01-26T01:12:37.524Z,12.7
2017-01-26T01:13:18.019Z,12.6
2017-01-26T01:13:58.511Z,12.61
2017-01-26T01:14:39.024Z,12.51
2017-01-26T01:15:19.515Z,12.61
2017-01-26T01:16:00.009Z,12.6
2017-01-26T01:16:40.514Z,12.79
2017-01-26T01:17:21.026Z,12.99
2017-01-26T01:18:01.513Z,12.89
2017-01-26T01:18:42.012Z,12.7
2017-01-26T01:19:22.507Z,12.7
2017-01-26T01:20:03.019Z,12.79
2017-01-26T01:20:43.514Z,12.79
2017-01-26T01:21:24.006Z,13.18
2017-01-26T01:22:04.510Z,12.99
2017-01-26T01:22:45.010Z,12.99
2017-01-26T01:23:25.508Z,12.99
2017-01-26T01:24:06.003Z,12.79
2017-01-26T01:24:46.496Z,12.79
2017-01-26T01:25:26.972Z,12.79
2017-01-26T01:26:07.462Z,12.79
2017-01-26T01:26:47.953Z,12.79
2017-01-26T01:27:28.451Z,12.79
2017-01-26T01:28:08.948Z,12.79
2017-01-26T01:28:49.460Z,12.79
2017-01-26T01:29:29.948Z,12.79
2017-01-26T01:30:10.445Z,12.79
2017-01-26T01:30:50.927Z,12.7
2017-01-26T01:31:31.424Z,12.89
2017-01-26T01:32:11.924Z,12.89
2017-01-26T01:32:52.540Z,12.89
2017-01-26T01:33:33.040Z,12.79
2017-01-26T01:34:13.527Z,12.79
2017-01-26T01:34:54.009Z,12.89
2017-01-26T01:35:34.502Z,12.79
2017-01-26T01:36:15.003Z,12.79
2017-01-26T01:36:55.492Z,12.6
2017-01-26T01:37:35.993Z,12.51
2017-01-26T01:38:16.489Z,12.51
2017-01-26T01:38:56.989Z,12.79
2017-01-26T01:39:37.471Z,12.6
2017-01-26T01:40:17.973Z,12.79
2017-01-26T01:40:58.464Z,12.79
2017-01-26T01:41:38.951Z,12.7
2017-01-26T01:42:19.433Z,12.79
2017-01-26T01:42:59.959Z,12.7
2017-01-26T01:43:40.464Z,12.7
2017-01-26T01:44:20.941Z,12.7
2017-01-26T01:45:01.432Z,12.61
2017-01-26T01:45:41.927Z,12.51
2017-01-26T01:46:22.414Z,12.6
2017-01-26T01:47:02.913Z,12.7
2017-01-26T01:47:43.398Z,12.89
2017-01-26T01:48:23.893Z,12.89
2017-01-26T01:49:04.380Z,12.79
2017-01-26T01:49:44.878Z,12.99
2017-01-26T01:50:25.375Z,12.79
2017-01-26T01:51:05.899Z,12.89
2017-01-26T01:51:46.380Z,12.99
2017-01-26T01:52:26.887Z,12.89
2017-01-26T01:53:07.378Z,12.89
2017-01-26T01:53:47.908Z,12.7
2017-01-26T01:54:28.352Z,12.89
2017-01-26T01:55:08.845Z,12.99
2017-01-26T01:55:49.343Z,12.79
2017-01-26T01:56:29.834Z,12.79
2017-01-26T01:57:10.332Z,12.6
2017-01-26T01:57:50.817Z,13.09
2017-01-26T01:58:31.300Z,12.79
2017-01-26T01:59:11.787Z,12.89
2017-01-26T01:59:52.270Z,12.7
2017-01-26T02:00:32.783Z,12.79
2017-01-26T02:01:13.266Z,12.99
2017-01-26T02:01:53.761Z,12.99
2017-01-26T02:02:34.253Z,12.79
2017-01-26T02:03:14.738Z,12.79
2017-01-26T02:03:55.236Z,12.79
2017-01-26T02:04:35.721Z,12.79
2017-01-26T02:05:16.219Z,12.89
2017-01-26T02:07:29.017Z,12.99
2017-01-26T02:08:09.500Z,12.7
2017-01-26T02:08:49.986Z,12.79
2017-01-26T02:09:30.487Z,12.79
2017-01-26T02:10:10.970Z,12.7
2017-01-26T02:10:51.484Z,12.89
2017-01-26T02:11:31.974Z,12.99
2017-01-26T02:12:12.465Z,12.99
2017-01-26T02:12:52.945Z,12.99
2017-01-26T02:13:33.446Z,12.89
2017-01-26T02:14:13.938Z,12.79
2017-01-26T02:14:54.420Z,12.89
2017-01-26T02:15:34.925Z,13.09
2017-01-26T02:16:15.413Z,12.79
2017-01-26T02:16:55.922Z,12.89
2017-01-26T02:17:36.415Z,12.79
2017-01-26T02:18:16.908Z,12.7
2017-01-26T02:18:57.410Z,12.79
2017-01-26T02:19:37.923Z,12.79
2017-01-26T02:20:18.408Z,12.89
2017-01-26T02:20:58.903Z,12.7
2017-01-26T02:21:39.397Z,12.7
2017-01-26T02:22:19.870Z,12.89
2017-01-26T02:23:00.367Z,12.79
2017-01-26T02:23:40.924Z,12.79
2017-01-26T02:24:21.409Z,12.99
2017-01-26T02:25:01.902Z,12.7
2017-01-26T02:25:42.378Z,12.99
2017-01-26T02:26:22.864Z,12.89
2017-01-26T02:27:03.372Z,12.89
2017-01-26T02:27:43.855Z,12.99
2017-01-26T02:28:24.351Z,12.89
2017-01-26T02:29:04.830Z,12.7
2017-01-26T02:29:45.326Z,12.7
2017-01-26T02:30:25.827Z,12.8
2017-01-26T02:31:06.318Z,12.79
2017-01-26T02:31:46.810Z,12.89
2017-01-26T02:32:27.294Z,12.79
2017-01-26T02:33:07.807Z,12.89
2017-01-26T02:33:48.297Z,12.6
2017-01-26T02:34:28.790Z,12.99
2017-01-26T02:35:09.291Z,12.99
2017-01-26T02:35:49.789Z,12.89
2017-01-26T02:36:30.272Z,12.99
2017-01-26T02:37:10.770Z,12.99
2017-01-26T02:37:51.266Z,12.99
2017-01-26T02:38:31.744Z,13.18
2017-01-26T02:39:12.256Z,12.89
2017-01-26T02:39:52.740Z,12.99
2017-01-26T02:40:33.234Z,12.99
2017-01-26T02:41:13.714Z,12.89
2017-01-26T02:41:54.216Z,12.7
2017-01-26T02:42:34.701Z,12.99
2017-01-26T02:43:15.185Z,12.7
2017-01-26T02:43:55.683Z,12.79
2017-01-26T02:44:36.180Z,12.7
2017-01-26T02:45:16.692Z,12.6
2017-01-26T02:45:57.182Z,12.79
2017-01-26T02:46:37.676Z,12.89
2017-01-26T02:47:18.183Z,12.79
2017-01-26T02:47:58.677Z,12.79
2017-01-26T02:48:39.182Z,12.7
2017-01-26T02:49:19.692Z,12.99
2017-01-26T02:50:00.181Z,12.89
2017-01-26T02:50:40.663Z,12.89
2017-01-26T02:51:21.156Z,12.99
2017-01-26T02:52:01.641Z,12.6
2017-01-26T02:52:42.136Z,12.89
2017-01-26T02:53:22.623Z,13.18
2017-01-26T02:54:03.123Z,12.79
2017-01-26T02:54:43.620Z,12.79
2017-01-26T02:55:24.138Z,13.09
2017-01-26T02:56:04.624Z,12.89
2017-01-26T02:56:45.112Z,12.79
2017-01-26T02:57:25.599Z,12.99
2017-01-26T02:58:06.097Z,12.89
2017-01-26T02:58:46.595Z,12.79
2017-01-26T02:59:27.081Z,12.89
2017-01-26T03:00:07.584Z,12.79
2017-01-26T03:00:48.067Z,12.99
2017-01-26T03:01:28.572Z,12.79
2017-01-26T03:02:09.062Z,12.7
2017-01-26T03:02:49.563Z,12.89
2017-01-26T03:03:30.058Z,12.7
2017-01-26T03:04:10.541Z,12.79
2017-01-26T03:04:51.036Z,12.79
2017-01-26T03:05:31.521Z,12.89
2017-01-26T03:06:12.019Z,12.99
2017-01-26T03:06:52.507Z,12.79
2017-01-26T03:07:33.002Z,12.7
2017-01-26T03:08:13.504Z,12.79
2017-01-26T03:08:54.136Z,12.79
2017-01-26T03:09:34.630Z,12.89
2017-01-26T03:10:15.117Z,12.79
2017-01-26T03:10:55.604Z,12.89
2017-01-26T03:11:36.129Z,12.79
2017-01-26T03:12:16.609Z,12.7
2017-01-26T03:12:57.120Z,12.99
2017-01-26T03:13:37.615Z,12.99
2017-01-26T03:14:18.100Z,12.79
2017-01-26T03:14:58.601Z,12.89
2017-01-26T03:15:39.097Z,12.7
2017-01-26T03:16:19.623Z,12.7
2017-01-26T03:17:00.096Z,12.89
2017-01-26T03:17:40.596Z,12.7
2017-01-26T03:18:21.101Z,12.79
2017-01-26T03:19:01.597Z,12.89
2017-01-26T03:19:42.082Z,12.89
2017-01-26T03:20:22.570Z,12.89
2017-01-26T03:21:03.061Z,12.89
2017-01-26T03:21:43.556Z,12.6
2017-01-26T03:22:24.043Z,12.79
2017-01-26T03:23:04.530Z,12.79
2017-01-26T03:23:45.019Z,12.7
2017-01-26T03:24:25.510Z,12.79
2017-01-26T03:25:06.000Z,12.7
2017-01-26T03:25:46.492Z,12.89
2017-01-26T03:26:27.000Z,12.7
2017-01-26T03:27:07.491Z,12.89
2017-01-26T03:27:47.988Z,13.09
2017-01-26T03:28:28.479Z,13.09
2017-01-26T03:29:08.962Z,12.99
2017-01-26T03:29:49.463Z,12.99
2017-01-26T03:30:29.939Z,12.79
2017-01-26T03:31:10.432Z,12.89
2017-01-26T03:31:50.912Z,12.7
2017-01-26T03:32:31.409Z,12.7
2017-01-26T03:33:11.907Z,12.99
2017-01-26T03:33:52.395Z,13.09
2017-01-26T03:34:32.890Z,13.09
2017-01-26T03:35:13.379Z,12.89
2017-01-26T03:35:53.892Z,12.7
2017-01-26T03:36:34.381Z,13.09
2017-01-26T03:37:14.857Z,12.89
2017-01-26T03:37:55.343Z,12.99
2017-01-26T03:38:35.826Z,12.79
2017-01-26T03:39:16.321Z,12.7
2017-01-26T03:39:56.801Z,12.89
2017-01-26T03:40:37.284Z,12.89
2017-01-26T03:41:17.784Z,12.79
2017-01-26T03:41:58.270Z,12.7
2017-01-26T03:42:38.781Z,12.7
2017-01-26T03:43:19.268Z,12.7
2017-01-26T03:43:59.784Z,12.99
2017-01-26T03:44:40.267Z,12.99
2017-01-26T03:45:20.764Z,12.89
2017-01-26T03:46:01.267Z,13.28
2017-01-26T03:46:41.766Z,13.18
2017-01-26T03:47:22.261Z,12.89
2017-01-26T03:48:02.750Z,12.7
2017-01-26T03:48:43.240Z,12.79
2017-01-26T03:49:23.726Z,12.89
2017-01-26T03:50:04.221Z,13.09
2017-01-26T03:50:44.711Z,12.79
2017-01-26T03:51:25.221Z,12.7
2017-01-26T03:52:05.710Z,12.7
2017-01-26T03:52:46.206Z,12.7
2017-01-26T03:53:26.686Z,12.79
2017-01-26T03:54:07.163Z,12.79
2017-01-26T03:54:47.685Z,12.79
2017-01-26T03:55:28.158Z,12.7
2017-01-26T03:56:08.664Z,12.71
2017-01-26T03:56:49.154Z,12.79
2017-01-26T03:57:29.650Z,12.7
2017-01-26T03:58:10.154Z,12.7
2017-01-26T03:58:50.665Z,12.79
2017-01-26T03:59:31.151Z,12.79
2017-01-26T04:00:11.664Z,12.89
2017-01-26T04:00:52.151Z,12.79
2017-01-26T04:01:32.660Z,12.79
2017-01-26T04:02:13.147Z,12.79
2017-01-26T04:02:53.662Z,12.89
2017-01-26T04:03:34.147Z,12.99
2017-01-26T04:04:14.664Z,12.89
2017-01-26T04:04:55.160Z,12.79
2017-01-26T04:05:35.657Z,12.79
2017-01-26T04:06:16.143Z,12.99
2017-01-26T04:06:56.628Z,12.6
2017-01-26T04:07:37.110Z,12.99
2017-01-26T04:08:17.596Z,13.09
2017-01-26T04:08:58.099Z,12.79
2017-01-26T04:09:38.596Z,12.99
2017-01-26T04:10:19.102Z,12.89
2017-01-26T04:10:59.590Z,13.09
2017-01-26T04:11:40.087Z,12.89
2017-01-26T04:12:20.578Z,12.99
2017-01-26T04:13:01.071Z,12.89
2017-01-26T04:13:41.559Z,13.09
2017-01-26T04:14:22.046Z,12.99
2017-01-26T04:15:02.546Z,12.79
2017-01-26T04:15:43.032Z,12.89
2017-01-26T04:16:23.533Z,12.7
2017-01-26T04:17:04.013Z,12.99
2017-01-26T04:17:44.514Z,12.7
2017-01-26T04:18:24.999Z,12.79
2017-01-26T04:19:05.484Z,12.7
2017-01-26T04:19:45.980Z,12.89
2017-01-26T04:20:26.475Z,12.79
2017-01-26T04:21:06.985Z,12.89
2017-01-26T04:21:47.472Z,12.79
2017-01-26T04:22:27.962Z,12.7
2017-01-26T04:23:08.448Z,12.89
2017-01-26T04:23:48.937Z,12.7
2017-01-26T04:24:29.437Z,12.79
2017-01-26T04:25:09.923Z,12.79
2017-01-26T04:25:50.416Z,12.89
2017-01-26T04:26:30.914Z,12.99
2017-01-26T04:27:11.397Z,12.7
2017-01-26T04:27:51.890Z,12.79
2017-01-26T04:28:32.384Z,12.99
2017-01-26T04:29:12.980Z,12.79
2017-01-26T04:29:53.468Z,12.89
2017-01-26T04:30:33.965Z,12.79
2017-01-26T04:31:14.444Z,13.09
2017-01-26T04:31:54.938Z,12.99
2017-01-26T04:32:35.439Z,13.18
2017-01-26T04:33:15.930Z,12.79
2017-01-26T04:33:56.422Z,12.79
2017-01-26T04:34:36.913Z,12.7
2017-01-26T04:35:17.422Z,12.79
2017-01-26T04:35:57.908Z,12.7
2017-01-26T04:36:38.405Z,12.7
2017-01-26T04:37:18.892Z,12.79
2017-01-26T04:37:59.389Z,12.7
2017-01-26T04:38:39.877Z,12.99
2017-01-26T04:39:20.362Z,12.79
2017-01-26T04:40:00.873Z,12.7
2017-01-26T04:40:41.359Z,12.89
2017-01-26T04:41:21.867Z,12.79
2017-01-26T04:42:02.356Z,12.79
2017-01-26T04:42:42.852Z,12.99
2017-01-26T04:43:23.351Z,12.89
2017-01-26T04:44:03.837Z,12.7
2017-01-26T04:44:44.328Z,12.7
2017-01-26T04:45:24.804Z,12.7
2017-01-26T04:46:05.317Z,12.79
2017-01-26T04:46:45.800Z,12.89
2017-01-26T04:47:26.321Z,12.89
2017-01-26T04:48:06.795Z,12.79
2017-01-26T04:48:47.306Z,12.7
2017-01-26T04:49:27.796Z,12.79
2017-01-26T04:50:08.288Z,12.99
2017-01-26T04:50:48.792Z,12.79
2017-01-26T04:51:29.275Z,12.99
2017-01-26T04:52:09.779Z,12.79
2017-01-26T04:52:50.274Z,12.79
2017-01-26T04:53:30.763Z,12.89
2017-01-26T04:54:11.245Z,12.79
2017-01-26T04:54:51.751Z,12.7
2017-01-26T04:55:32.239Z,12.89
2017-01-26T04:56:12.750Z,12.79
2017-01-26T04:56:53.247Z,12.7
2017-01-26T04:57:33.746Z,12.79
2017-01-26T04:58:14.239Z,12.89
2017-01-26T04:58:54.747Z,12.7
2017-01-26T04:59:35.259Z,12.79
2017-01-26T05:00:15.763Z,12.99
2017-01-26T05:00:56.255Z,12.79
2017-01-26T05:01:36.744Z,12.79
2017-01-26T05:02:17.235Z,12.79
2017-01-26T05:02:57.731Z,12.89
2017-01-26T05:03:38.230Z,12.99
2017-01-26T05:04:18.732Z,12.7
2017-01-26T05:04:59.225Z,12.89
2017-01-26T05:05:39.712Z,12.89
2017-01-26T05:06:20.201Z,12.99
2017-01-26T05:07:00.733Z,12.89
2017-01-26T05:07:41.231Z,12.6
2017-01-26T05:08:21.722Z,12.89
2017-01-26T05:09:02.217Z,13.18
2017-01-26T05:09:42.706Z,12.99
2017-01-26T05:10:23.195Z,12.7
2017-01-26T05:11:03.774Z,12.89
2017-01-26T05:11:44.301Z,12.99
2017-01-26T05:12:24.781Z,12.99
2017-01-26T05:13:05.284Z,12.89
2017-01-26T05:13:45.775Z,12.99
2017-01-26T05:14:26.290Z,12.79
2017-01-26T05:15:06.778Z,12.89
2017-01-26T05:15:47.290Z,12.89
2017-01-26T05:16:27.778Z,12.7
2017-01-26T05:17:08.280Z,12.79
2017-01-26T05:17:48.771Z,12.7
2017-01-26T05:18:29.285Z,12.7
2017-01-26T05:19:09.772Z,12.79
2017-01-26T05:19:50.267Z,12.89
2017-01-26T05:20:30.765Z,13.09
2017-01-26T05:21:11.277Z,12.89
2017-01-26T05:21:51.767Z,12.99
2017-01-26T05:22:32.265Z,13.09
2017-01-26T05:23:12.743Z,12.79
2017-01-26T05:23:53.245Z,12.89
2017-01-26T05:24:33.734Z,12.99
2017-01-26T05:25:14.216Z,12.79
2017-01-26T05:25:54.709Z,12.79
2017-01-26T05:26:35.206Z,12.7
2017-01-26T05:27:15.684Z,12.79
2017-01-26T05:27:56.177Z,12.79
2017-01-26T05:28:36.668Z,12.89
2017-01-26T05:29:17.157Z,12.99
2017-01-26T05:29:57.650Z,12.79
2017-01-26T05:30:38.136Z,12.79
2017-01-26T05:31:18.633Z,12.89
2017-01-26T05:31:59.123Z,12.89
2017-01-26T05:32:39.614Z,12.79
2017-01-26T05:33:20.103Z,12.89
2017-01-26T05:34:00.609Z,12.89
2017-01-26T05:34:41.099Z,12.89
2017-01-26T05:35:21.614Z,12.7
2017-01-26T05:36:02.104Z,12.89
2017-01-26T05:36:42.597Z,13.09
2017-01-26T05:37:23.101Z,12.99
2017-01-26T05:38:03.620Z,12.79
2017-01-26T05:38:44.101Z,12.79
2017-01-26T05:39:24.595Z,12.79
2017-01-26T05:40:05.089Z,12.89
2017-01-26T05:40:45.581Z,12.89
2017-01-26T05:41:26.069Z,12.7
2017-01-26T05:42:06.548Z,12.79
2017-01-26T05:42:47.053Z,12.7
2017-01-26T05:43:27.543Z,12.99
2017-01-26T05:44:08.037Z,12.89
2017-01-26T05:44:48.539Z,13.09
2017-01-26T05:45:29.034Z,12.99
2017-01-26T05:46:09.564Z,12.79
2017-01-26T05:46:50.020Z,12.99
2017-01-26T05:47:30.514Z,12.99
2017-01-26T05:48:10.997Z,12.99
2017-01-26T05:48:51.501Z,12.89
2017-01-26T05:49:31.989Z,12.7
2017-01-26T05:50:12.479Z,12.6
2017-01-26T05:50:52.963Z,12.7
2017-01-26T05:51:33.448Z,12.89
2017-01-26T05:52:13.946Z,12.7
2017-01-26T05:52:54.434Z,13.09
2017-01-26T05:53:34.954Z,12.99
2017-01-26T05:54:15.442Z,12.89
2017-01-26T05:54:55.939Z,12.99
2017-01-26T05:55:36.433Z,12.89
2017-01-26T05:56:17.048Z,12.99
2017-01-26T05:56:57.539Z,12.89
2017-01-26T05:57:38.040Z,12.7
2017-01-26T05:58:18.526Z,12.79
2017-01-26T05:58:59.012Z,12.99
2017-01-26T05:59:39.502Z,13.09
2017-01-26T06:00:19.987Z,12.99
2017-01-26T06:01:00.484Z,12.89
2017-01-26T06:01:40.976Z,13.09
2017-01-26T06:02:21.467Z,13.09
2017-01-26T06:03:01.952Z,12.99
2017-01-26T06:03:42.444Z,13.09
2017-01-26T06:04:22.947Z,12.99
2017-01-26T06:05:03.435Z,12.79
2017-01-26T06:05:43.930Z,12.89
2017-01-26T06:06:24.421Z,12.79
2017-01-26T06:07:04.913Z,12.89
2017-01-26T06:07:45.399Z,12.89
2017-01-26T06:08:25.900Z,12.99
2017-01-26T06:09:06.384Z,12.88
2017-01-26T06:09:46.870Z,12.99
2017-01-26T06:10:27.365Z,12.7
2017-01-26T06:11:07.864Z,12.79
2017-01-26T06:11:48.361Z,12.99
2017-01-26T06:12:28.877Z,13.09
2017-01-26T06:13:09.381Z,12.79
2017-01-26T06:13:49.869Z,12.79
2017-01-26T06:14:30.354Z,12.7
2017-01-26T06:15:10.838Z,12.89
2017-01-26T06:15:51.315Z,12.7
2017-01-26T06:16:31.819Z,12.7
2017-01-26T06:17:12.309Z,12.7
2017-01-26T06:17:52.797Z,12.99
2017-01-26T06:18:33.287Z,12.99
2017-01-26T06:19:13.775Z,12.89
2017-01-26T06:19:54.266Z,12.89
2017-01-26T06:20:34.752Z,12.89
2017-01-26T06:21:15.269Z,12.79
2017-01-26T06:21:55.754Z,12.99
2017-01-26T06:22:36.250Z,12.99
2017-01-26T06:23:16.757Z,12.7
2017-01-26T06:23:57.261Z,12.79
2017-01-26T06:24:37.751Z,12.79
2017-01-26T06:25:18.259Z,12.79
2017-01-26T06:25:58.750Z,12.79
2017-01-26T06:26:39.254Z,13.09
2017-01-26T06:27:19.748Z,12.89
2017-01-26T06:28:00.240Z,12.7
2017-01-26T06:28:40.725Z,12.89
2017-01-26T06:29:21.221Z,13.18
2017-01-26T06:30:01.718Z,12.79
2017-01-26T06:30:42.206Z,13.18
2017-01-26T06:31:22.702Z,12.89
2017-01-26T06:32:03.193Z,12.99
2017-01-26T06:32:43.680Z,12.89
2017-01-26T06:33:24.203Z,12.89
2017-01-26T06:34:04.707Z,12.99
2017-01-26T06:34:45.186Z,13.18
2017-01-26T06:35:25.691Z,13.18
2017-01-26T06:36:06.185Z,12.89
2017-01-26T06:36:46.698Z,12.99
2017-01-26T06:37:27.187Z,12.99
2017-01-26T06:38:07.683Z,12.89
2017-01-26T06:38:48.179Z,13.18
2017-01-26T06:39:28.665Z,12.99
2017-01-26T06:40:09.152Z,12.99
2017-01-26T06:40:49.636Z,12.89
2017-01-26T06:41:30.143Z,12.99
2017-01-26T06:42:10.631Z,12.99
2017-01-26T06:42:51.128Z,13.09
2017-01-26T06:43:31.626Z,12.79
2017-01-26T06:44:12.127Z,13.18
2017-01-26T06:44:52.621Z,12.89
2017-01-26T06:45:33.107Z,12.99
2017-01-26T06:46:13.589Z,12.89
2017-01-26T06:46:54.078Z,12.89
2017-01-26T06:47:34.582Z,12.99
2017-01-26T06:48:15.073Z,12.89
2017-01-26T06:48:55.568Z,12.89
2017-01-26T06:49:36.051Z,12.99
2017-01-26T06:50:16.546Z,12.99
2017-01-26T06:50:57.036Z,12.89
2017-01-26T06:51:37.522Z,12.99
2017-01-26T06:52:18.016Z,12.89
2017-01-26T06:52:58.520Z,12.89
2017-01-26T06:53:39.031Z,13.09
2017-01-26T06:54:19.519Z,12.99
2017-01-26T06:55:00.009Z,12.89
2017-01-26T06:55:40.498Z,12.99
2017-01-26T06:56:20.994Z,12.99
2017-01-26T06:57:01.493Z,12.99
2017-01-26T06:57:41.981Z,12.99
2017-01-26T06:58:22.493Z,12.99
2017-01-26T06:59:02.987Z,12.89
2017-01-26T06:59:43.479Z,13.28
2017-01-26T07:00:23.967Z,12.89
2017-01-26T07:01:04.473Z,13.37
2017-01-26T07:01:44.960Z,13.37
2017-01-26T07:02:25.491Z,13.28
2017-01-26T07:03:05.984Z,13.18
2017-01-26T07:03:46.488Z,13.28
2017-01-26T07:04:26.988Z,13.37
2017-01-26T07:05:07.477Z,13.37
2017-01-26T07:05:47.963Z,13.28
2017-01-26T07:06:28.452Z,13.37
2017-01-26T07:07:08.943Z,13.28
2017-01-26T07:07:49.427Z,13.28
2017-01-26T07:08:29.915Z,13.37
2017-01-26T07:09:10.602Z,13.56
2017-01-26T07:09:51.209Z,13.47
2017-01-26T07:10:31.991Z,13.47
2017-01-26T07:11:12.471Z,13.47
2017-01-26T07:11:52.974Z,13.47
2017-01-26T07:12:33.462Z,13.76
2017-01-26T07:13:13.961Z,13.28
2017-01-26T07:13:54.447Z,13.47
2017-01-26T07:14:34.943Z,13.56
2017-01-26T07:15:15.461Z,13.47
2017-01-26T07:15:55.955Z,13.47
2017-01-26T07:16:36.456Z,13.56
2017-01-26T07:17:16.966Z,13.47
2017-01-26T07:17:57.454Z,13.65
2017-01-26T07:18:37.966Z,13.65
2017-01-26T07:19:18.458Z,13.46
2017-01-26T07:19:58.949Z,13.37
2017-01-26T07:20:39.442Z,13.56
2017-01-26T07:21:19.933Z,13.37
2017-01-26T07:22:00.417Z,13.56
2017-01-26T07:22:40.902Z,13.56
2017-01-26T07:23:21.402Z,13.47
2017-01-26T07:24:01.877Z,13.56
2017-01-26T07:24:42.378Z,13.56
2017-01-26T07:25:22.873Z,13.56
2017-01-26T07:26:03.651Z,13.85
2017-01-26T07:26:44.163Z,14.04
2017-01-26T07:27:24.653Z,13.37
2017-01-26T07:28:05.141Z,13.85
2017-01-26T07:28:45.643Z,13.95
2017-01-26T07:29:26.584Z,13.95
2017-01-26T07:30:07.068Z,13.56
2017-01-26T07:30:47.570Z,13.47
2017-01-26T07:31:28.062Z,13.47
2017-01-26T07:32:08.557Z,13.47
2017-01-26T07:32:49.260Z,13.56
2017-01-26T07:33:29.758Z,13.56
2017-01-26T07:34:10.241Z,13.56
2017-01-26T07:34:50.724Z,13.85
2017-01-26T07:35:31.214Z,13.66
2017-01-26T07:36:11.708Z,13.85
2017-01-26T07:36:52.201Z,13.56
2017-01-26T07:37:32.677Z,13.56
2017-01-26T07:38:13.170Z,13.37
2017-01-26T07:38:53.663Z,13.37
2017-01-26T07:39:34.151Z,13.56
2017-01-26T07:40:14.648Z,13.95
2017-01-26T07:40:56.745Z,13.95
2017-01-26T07:41:36.462Z,14.04
2017-01-26T07:42:16.965Z,13.95
2017-01-26T07:42:57.456Z,13.85
2017-01-26T07:43:37.944Z,14.14
2017-01-26T07:44:18.425Z,13.85
2017-01-26T07:44:58.928Z,14.14
2017-01-26T07:45:39.417Z,14.14
2017-01-26T07:46:19.910Z,13.85
2017-01-26T07:47:00.407Z,13.85
2017-01-26T07:47:40.906Z,13.95
2017-01-26T07:48:21.610Z,13.85
2017-01-26T07:49:02.374Z,13.85
2017-01-26T07:49:42.885Z,14.04
2017-01-26T07:50:23.372Z,13.95
2017-01-26T07:51:03.893Z,13.85
2017-01-26T07:51:44.350Z,13.76
2017-01-26T07:52:24.839Z,13.95
2017-01-26T07:53:05.333Z,13.76
2017-01-26T07:53:45.818Z,14.04
2017-01-26T07:54:26.314Z,14.04
2017-01-26T07:55:06.797Z,13.95
2017-01-26T07:55:47.283Z,13.85
2017-01-26T07:56:27.778Z,13.95
2017-01-26T07:57:08.244Z,13.85
2017-01-26T07:57:48.793Z,13.76
2017-01-26T07:58:29.236Z,13.76
2017-01-26T07:59:09.732Z,13.76
2017-01-26T07:59:50.221Z,13.85
2017-01-26T08:00:30.709Z,14.14
2017-01-26T08:01:11.204Z,14.14
2017-01-26T08:01:51.701Z,14.14
2017-01-26T08:02:32.186Z,14.14
2017-01-26T08:03:12.677Z,14.14
2017-01-26T08:03:53.161Z,14.04
2017-01-26T08:04:33.650Z,14.14
2017-01-26T08:05:14.136Z,14.14
2017-01-26T08:05:54.615Z,14.14
2017-01-26T08:06:35.115Z,14.14
2017-01-26T08:07:15.601Z,14.14
2017-01-26T08:07:56.097Z,14.14
2017-01-26T08:08:36.596Z,14.14
2017-01-26T08:09:17.073Z,14.25
2017-01-26T08:09:57.575Z,14.04
2017-01-26T08:10:38.064Z,14.14
2017-01-26T08:11:18.560Z,14.04
2017-01-26T08:11:59.047Z,14.14
2017-01-26T08:12:39.545Z,14.15
2017-01-26T08:13:20.045Z,14.14
2017-01-26T08:14:00.537Z,14.24
2017-01-26T08:14:41.022Z,14.14
2017-01-26T08:15:21.519Z,14.25
2017-01-26T08:16:02.013Z,14.05
2017-01-26T08:16:42.495Z,14.04
2017-01-26T08:17:22.991Z,14.14
2017-01-26T08:18:03.489Z,14.14
2017-01-26T08:18:44.220Z,14.24
2017-01-26T08:19:24.709Z,14.14
2017-01-26T08:20:05.201Z,14.15
2017-01-26T08:20:45.693Z,14.15
2017-01-26T08:21:26.188Z,13.86
2017-01-26T08:22:06.670Z,14.15
2017-01-26T08:22:47.164Z,14.15
2017-01-26T08:23:27.662Z,14.15
2017-01-26T08:24:08.165Z,14.15
2017-01-26T08:24:48.654Z,14.15
2017-01-26T08:25:29.139Z,14.05
2017-01-26T08:26:09.643Z,14.05
2017-01-26T08:26:50.132Z,13.86
2017-01-26T08:27:30.631Z,13.86
2017-01-26T08:28:11.130Z,14.25
2017-01-26T08:28:51.615Z,14.05
2017-01-26T08:29:32.110Z,14.05
2017-01-26T08:30:12.595Z,14.14
2017-01-26T08:30:53.090Z,14.15
2017-01-26T08:31:33.579Z,14.15
2017-01-26T08:32:14.081Z,13.86
2017-01-26T08:32:54.574Z,13.76
2017-01-26T08:33:35.071Z,14.25
2017-01-26T08:34:15.555Z,14.15
2017-01-26T08:34:56.053Z,14.15
2017-01-26T08:35:36.539Z,14.15
2017-01-26T08:36:17.026Z,14.14
2017-01-26T08:36:57.521Z,14.15
2017-01-26T08:37:38.015Z,14.15
2017-01-26T08:38:18.478Z,14.15
2017-01-26T08:38:58.967Z,13.76
2017-01-26T08:39:39.471Z,13.86
2017-01-26T08:40:19.966Z,13.76
2017-01-26T08:41:00.453Z,13.76
2017-01-26T08:41:40.944Z,14.05
2017-01-26T08:42:21.438Z,13.76
2017-01-26T08:43:01.922Z,13.96
2017-01-26T08:43:42.685Z,13.86
2017-01-26T08:44:23.190Z,13.67
2017-01-26T08:45:03.677Z,13.96
2017-01-26T08:45:44.177Z,13.86